sensor_id;sensor_type;location;lat;lon;timestamp;pressure;altitude;pressure_sealevel;temperature;humidity
80777;BME280;70169;51.262;6.336;2024-03-17T10:58:44;101581.75;;;11.83;79.75
80777;BME280;70169;51.262;6.336;2024-03-17T11:01:05;101587.16;;;11.75;76.77
80777;BME280;70169;51.262;6.336;2024-03-17T11:03:23;101590.19;;;11.72;77.84
80777;BME280;70169;51.262;6.336;2024-03-17T11:05:38;101585.72;;;11.72;79.51
80777;BME280;70169;51.262;6.336;2024-03-17T11:07:55;101582.50;;;11.77;79.90
80777;BME280;70169;51.262;6.336;2024-03-17T11:10:15;101581.88;;;11.75;79.20
80777;BME280;70169;51.262;6.336;2024-03-17T11:12:41;101579.41;;;11.73;79.39
80777;BME280;70169;51.262;6.336;2024-03-17T11:17:35;101583.88;;;11.73;79.46
80777;BME280;70169;51.262;6.336;2024-03-17T11:20:17;101580.44;;;11.72;79.33
80777;BME280;70169;51.262;6.336;2024-03-17T11:22:48;101584.16;;;11.78;79.60
80777;BME280;70169;51.262;6.336;2024-03-17T11:27:42;101588.78;;;11.91;79.08
80777;BME280;70169;51.262;6.336;2024-03-17T11:32:51;101595.22;;;12.18;79.40
80777;BME280;70169;51.262;6.336;2024-03-17T11:35:13;101578.41;;;12.32;79.10
80777;BME280;70169;51.262;6.336;2024-03-17T11:37:42;101585.28;;;12.48;77.84
80777;BME280;70169;51.262;6.336;2024-03-17T11:39:57;101578.25;;;12.62;78.09
80777;BME280;70169;51.262;6.336;2024-03-17T11:42:13;101575.91;;;12.74;76.96
80777;BME280;70169;51.262;6.336;2024-03-17T11:44:29;101571.91;;;12.85;76.87
80777;BME280;70169;51.262;6.336;2024-03-17T11:46:50;101570.31;;;12.90;76.99
80777;BME280;70169;51.262;6.336;2024-03-17T11:49:05;101567.88;;;12.95;76.42
80777;BME280;70169;51.262;6.336;2024-03-17T11:51:23;101569.97;;;13.00;76.13
80777;BME280;70169;51.262;6.336;2024-03-17T11:53:38;101562.22;;;13.05;75.90
80777;BME280;70169;51.262;6.336;2024-03-17T11:55:53;101562.25;;;13.12;76.30
80777;BME280;70169;51.262;6.336;2024-03-17T11:58:13;101558.41;;;13.14;75.60
80777;BME280;70169;51.262;6.336;2024-03-17T12:00:30;101559.88;;;13.17;75.38
80777;BME280;70169;51.262;6.336;2024-03-17T12:02:48;101552.91;;;13.16;73.57
80777;BME280;70169;51.262;6.336;2024-03-17T12:05:04;101540.22;;;13.11;74.16
80777;BME280;70169;51.262;6.336;2024-03-17T12:07:22;101538.78;;;13.09;75.03
80777;BME280;70169;51.262;6.336;2024-03-17T12:09:41;101532.03;;;13.06;75.09
80777;BME280;70169;51.262;6.336;2024-03-17T12:12:01;101535.88;;;13.04;75.31
80777;BME280;70169;51.262;6.336;2024-03-17T12:14:18;101529.97;;;13.02;75.62
80777;BME280;70169;51.262;6.336;2024-03-17T12:16:37;101524.84;;;13.00;76.11
80777;BME280;70169;51.262;6.336;2024-03-17T12:18:52;101526.50;;;13.01;76.20
80777;BME280;70169;51.262;6.336;2024-03-17T12:21:13;101528.94;;;13.03;76.45
80777;BME280;70169;51.262;6.336;2024-03-17T12:23:29;101527.31;;;13.02;76.62
80777;BME280;70169;51.262;6.336;2024-03-17T12:25:46;101524.44;;;13.03;76.58
80777;BME280;70169;51.262;6.336;2024-03-17T12:28:02;101522.00;;;13.02;76.21
80777;BME280;70169;51.262;6.336;2024-03-17T12:30:19;101517.50;;;13.02;75.94
80777;BME280;70169;51.262;6.336;2024-03-17T12:32:35;101512.00;;;13.04;76.87
80777;BME280;70169;51.262;6.336;2024-03-17T12:34:55;101507.94;;;13.08;75.95
80777;BME280;70169;51.262;6.336;2024-03-17T12:37:25;101504.22;;;13.02;75.94
80777;BME280;70169;51.262;6.336;2024-03-17T12:39:50;101500.34;;;12.98;76.53
80777;BME280;70169;51.262;6.336;2024-03-17T12:42:07;101501.97;;;12.99;76.71
80777;BME280;70169;51.262;6.336;2024-03-17T12:44:25;101492.56;;;12.97;76.80
80777;BME280;70169;51.262;6.336;2024-03-17T12:46:41;101494.81;;;12.93;75.98
80777;BME280;70169;51.262;6.336;2024-03-17T12:48:59;101483.75;;;12.89;75.41
80777;BME280;70169;51.262;6.336;2024-03-17T12:51:14;101474.78;;;12.90;76.69
80777;BME280;70169;51.262;6.336;2024-03-17T12:53:30;101471.31;;;12.90;76.47
80777;BME280;70169;51.262;6.336;2024-03-17T12:55:53;101465.38;;;12.88;76.02
80777;BME280;70169;51.262;6.336;2024-03-17T12:58:27;101460.69;;;12.83;76.28
80777;BME280;70169;51.262;6.336;2024-03-17T13:01:05;101457.38;;;12.81;76.65
80777;BME280;70169;51.262;6.336;2024-03-17T13:03:28;101459.84;;;12.83;76.83
80777;BME280;70169;51.262;6.336;2024-03-17T13:05:46;101453.53;;;12.84;77.07
80777;BME280;70169;51.262;6.336;2024-03-17T13:08:03;101447.22;;;12.85;77.21
80777;BME280;70169;51.262;6.336;2024-03-17T13:10:19;101448.84;;;12.86;77.09
80777;BME280;70169;51.262;6.336;2024-03-17T13:12:34;101448.22;;;12.84;77.33
80777;BME280;70169;51.262;6.336;2024-03-17T13:14:49;101449.03;;;12.84;77.79
80777;BME280;70169;51.262;6.336;2024-03-17T13:17:06;101448.22;;;12.84;76.91
80777;BME280;70169;51.262;6.336;2024-03-17T13:19:22;101446.56;;;12.83;76.88
80777;BME280;70169;51.262;6.336;2024-03-17T13:21:37;101450.25;;;12.82;77.64
80777;BME280;70169;51.262;6.336;2024-03-17T13:23:53;101445.34;;;12.79;77.33
80777;BME280;70169;51.262;6.336;2024-03-17T13:26:08;101444.09;;;12.74;77.17
80777;BME280;70169;51.262;6.336;2024-03-17T13:28:23;101441.22;;;12.69;77.54
80777;BME280;70169;51.262;6.336;2024-03-17T13:30:39;101438.94;;;12.66;78.13
80777;BME280;70169;51.262;6.336;2024-03-17T13:32:55;101440.16;;;12.64;78.70
80777;BME280;70169;51.262;6.336;2024-03-17T13:35:19;101439.53;;;12.62;78.23
80777;BME280;70169;51.262;6.336;2024-03-17T13:37:35;101437.66;;;12.55;78.19
80777;BME280;70169;51.262;6.336;2024-03-17T13:39:52;101434.56;;;12.52;78.92
80777;BME280;70169;51.262;6.336;2024-03-17T13:42:07;101425.38;;;12.48;78.98
80777;BME280;70169;51.262;6.336;2024-03-17T13:44:23;101424.31;;;12.42;79.05
80777;BME280;70169;51.262;6.336;2024-03-17T13:46:38;101420.03;;;12.41;78.11
80777;BME280;70169;51.262;6.336;2024-03-17T13:48:53;101419.78;;;12.36;79.39
80777;BME280;70169;51.262;6.336;2024-03-17T13:51:09;101416.53;;;12.34;79.32
80777;BME280;70169;51.262;6.336;2024-03-17T13:53:24;101421.00;;;12.33;79.11
80777;BME280;70169;51.262;6.336;2024-03-17T13:55:39;101417.53;;;12.33;79.28
80777;BME280;70169;51.262;6.336;2024-03-17T13:57:56;101414.28;;;12.37;79.44
80777;BME280;70169;51.262;6.336;2024-03-17T14:00:12;101405.56;;;12.44;79.35
80777;BME280;70169;51.262;6.336;2024-03-17T14:02:31;101404.78;;;12.50;79.64
80777;BME280;70169;51.262;6.336;2024-03-17T14:04:46;101400.34;;;12.57;79.09
80777;BME280;70169;51.262;6.336;2024-03-17T14:07:01;101393.84;;;12.66;79.66
80777;BME280;70169;51.262;6.336;2024-03-17T14:09:17;101391.63;;;12.70;78.50
80777;BME280;70169;51.262;6.336;2024-03-17T14:11:37;101388.56;;;12.73;78.02
80777;BME280;70169;51.262;6.336;2024-03-17T14:13:53;101392.47;;;12.77;78.05
80777;BME280;70169;51.262;6.336;2024-03-17T14:16:08;101388.84;;;12.85;78.69
80777;BME280;70169;51.262;6.336;2024-03-17T14:18:26;101390.06;;;12.89;78.05
80777;BME280;70169;51.262;6.336;2024-03-17T14:20:41;101379.47;;;12.95;77.97
80777;BME280;70169;51.262;6.336;2024-03-17T14:22:56;101373.56;;;13.00;78.11
80777;BME280;70169;51.262;6.336;2024-03-17T14:25:17;101378.91;;;13.07;77.35
80777;BME280;70169;51.262;6.336;2024-03-17T14:27:33;101371.41;;;13.17;77.17
80777;BME280;70169;51.262;6.336;2024-03-17T14:29:50;101375.53;;;13.33;76.44
80777;BME280;70169;51.262;6.336;2024-03-17T14:32:06;101366.53;;;13.47;76.31
80777;BME280;70169;51.262;6.336;2024-03-17T14:34:21;101370.03;;;13.61;75.62
80777;BME280;70169;51.262;6.336;2024-03-17T14:36:36;101362.91;;;13.75;74.85
80777;BME280;70169;51.262;6.336;2024-03-17T14:38:53;101363.72;;;13.82;73.96
80777;BME280;70169;51.262;6.336;2024-03-17T14:41:08;101363.69;;;13.89;73.59
80777;BME280;70169;51.262;6.336;2024-03-17T14:43:24;101354.09;;;13.95;74.06
80777;BME280;70169;51.262;6.336;2024-03-17T14:45:40;101353.28;;;13.94;72.62
80777;BME280;70169;51.262;6.336;2024-03-17T14:47:55;101350.81;;;13.86;72.27
80777;BME280;70169;51.262;6.336;2024-03-17T14:50:11;101350.81;;;13.79;72.19
80777;BME280;70169;51.262;6.336;2024-03-17T14:52:31;101347.78;;;13.69;72.57
80777;BME280;70169;51.262;6.336;2024-03-17T14:54:46;101341.63;;;13.62;73.39
80777;BME280;70169;51.262;6.336;2024-03-17T14:57:02;101335.09;;;13.58;73.62
80777;BME280;70169;51.262;6.336;2024-03-17T14:59:17;101329.41;;;13.54;73.43
80777;BME280;70169;51.262;6.336;2024-03-17T15:01:34;101330.59;;;13.52;73.79
80777;BME280;70169;51.262;6.336;2024-03-17T15:03:49;101333.06;;;13.46;73.20
80777;BME280;70169;51.262;6.336;2024-03-17T15:06:11;101325.91;;;13.40;73.28
80777;BME280;70169;51.262;6.336;2024-03-17T15:08:27;101319.16;;;13.38;73.83
80777;BME280;70169;51.262;6.336;2024-03-17T15:10:43;101326.91;;;13.32;73.42
80777;BME280;70169;51.262;6.336;2024-03-17T15:12:59;101324.44;;;13.31;73.41
80777;BME280;70169;51.262;6.336;2024-03-17T15:15:15;101318.31;;;13.30;73.23
80777;BME280;70169;51.262;6.336;2024-03-17T15:17:30;101315.47;;;13.32;74.10
80777;BME280;70169;51.262;6.336;2024-03-17T15:19:48;101309.78;;;13.35;73.42
80777;BME280;70169;51.262;6.336;2024-03-17T15:22:04;101306.03;;;13.29;73.64
80777;BME280;70169;51.262;6.336;2024-03-17T15:24:19;101309.50;;;13.23;73.83
80777;BME280;70169;51.262;6.336;2024-03-17T15:26:34;101305.03;;;13.17;74.26
80777;BME280;70169;51.262;6.336;2024-03-17T15:28:50;101301.34;;;13.18;75.35
80777;BME280;70169;51.262;6.336;2024-03-17T15:31:06;101299.53;;;13.19;75.39
80777;BME280;70169;51.262;6.336;2024-03-17T15:33:21;101299.53;;;13.19;75.27
80777;BME280;70169;51.262;6.336;2024-03-17T15:35:39;101297.47;;;13.21;75.89
80777;BME280;70169;51.262;6.336;2024-03-17T15:37:58;101301.53;;;13.23;75.20
80777;BME280;70169;51.262;6.336;2024-03-17T15:40:13;101290.13;;;13.23;74.74
80777;BME280;70169;51.262;6.336;2024-03-17T15:42:31;101293.81;;;13.22;75.34
80777;BME280;70169;51.262;6.336;2024-03-17T15:44:48;101287.25;;;13.18;75.09
80777;BME280;70169;51.262;6.336;2024-03-17T15:47:03;101291.72;;;13.10;75.83
80777;BME280;70169;51.262;6.336;2024-03-17T15:49:19;101290.09;;;13.03;75.90
80777;BME280;70169;51.262;6.336;2024-03-17T15:51:34;101285.19;;;12.93;76.19
80777;BME280;70169;51.262;6.336;2024-03-17T15:53:50;101283.72;;;12.84;76.19
80777;BME280;70169;51.262;6.336;2024-03-17T15:56:06;101283.72;;;12.77;76.89
80777;BME280;70169;51.262;6.336;2024-03-17T15:58:21;101267.16;;;12.68;77.09
80777;BME280;70169;51.262;6.336;2024-03-17T16:00:36;101277.75;;;12.62;77.11
80777;BME280;70169;51.262;6.336;2024-03-17T16:02:53;101275.69;;;12.57;78.06
80777;BME280;70169;51.262;6.336;2024-03-17T16:05:08;101269.59;;;12.56;77.71
80777;BME280;70169;51.262;6.336;2024-03-17T16:07:27;101267.75;;;12.57;77.67
80777;BME280;70169;51.262;6.336;2024-03-17T16:09:42;101262.44;;;12.57;78.06
80777;BME280;70169;51.262;6.336;2024-03-17T16:11:58;101256.94;;;12.58;78.27
80777;BME280;70169;51.262;6.336;2024-03-17T16:14:13;101258.38;;;12.61;78.58
80777;BME280;70169;51.262;6.336;2024-03-17T16:16:29;101252.88;;;12.63;78.20
80777;BME280;70169;51.262;6.336;2024-03-17T16:18:47;101254.50;;;12.64;78.27
80777;BME280;70169;51.262;6.336;2024-03-17T16:21:05;101259.78;;;12.64;77.94
80777;BME280;70169;51.262;6.336;2024-03-17T16:23:21;101252.03;;;12.62;78.08
80777;BME280;70169;51.262;6.336;2024-03-17T16:25:37;101255.72;;;12.61;78.00
80777;BME280;70169;51.262;6.336;2024-03-17T16:27:52;101260.41;;;12.59;78.55
80777;BME280;70169;51.262;6.336;2024-03-17T16:30:09;101257.13;;;12.57;79.23
80777;BME280;70169;51.262;6.336;2024-03-17T16:32:27;101255.91;;;12.53;79.67
80777;BME280;70169;51.262;6.336;2024-03-17T16:34:43;101263.41;;;12.49;79.88
80777;BME280;70169;51.262;6.336;2024-03-17T16:36:58;101269.16;;;12.46;79.87
80777;BME280;70169;51.262;6.336;2024-03-17T16:39:13;101269.09;;;12.39;79.93
80777;BME280;70169;51.262;6.336;2024-03-17T16:41:29;101260.31;;;12.32;80.02
80777;BME280;70169;51.262;6.336;2024-03-17T16:48:58;101260.00;;;12.14;80.35
80777;BME280;70169;51.262;6.336;2024-03-17T16:51:13;101257.97;;;12.09;80.32
80777;BME280;70169;51.262;6.336;2024-03-17T16:53:33;101262.03;;;12.05;80.72
80777;BME280;70169;51.262;6.336;2024-03-17T16:55:48;101263.22;;;12.02;81.27
80777;BME280;70169;51.262;6.336;2024-03-17T16:58:04;101262.19;;;11.97;81.36
80777;BME280;70169;51.262;6.336;2024-03-17T17:00:19;101256.47;;;11.93;81.47
80777;BME280;70169;51.262;6.336;2024-03-17T17:02:35;101258.81;;;11.88;81.31
80777;BME280;70169;51.262;6.336;2024-03-17T17:04:51;101249.66;;;11.84;81.93
80777;BME280;70169;51.262;6.336;2024-03-17T17:07:06;101255.13;;;11.82;82.32
80777;BME280;70169;51.262;6.336;2024-03-17T17:09:22;101252.06;;;11.79;82.38
80777;BME280;70169;51.262;6.336;2024-03-17T17:11:37;101256.94;;;11.75;82.49
80777;BME280;70169;51.262;6.336;2024-03-17T17:13:53;101245.09;;;11.71;82.43
80777;BME280;70169;51.262;6.336;2024-03-17T17:16:08;101250.78;;;11.68;82.99
80777;BME280;70169;51.262;6.336;2024-03-17T17:19:02;101253.00;;;11.64;83.26
80777;BME280;70169;51.262;6.336;2024-03-17T17:21:20;101256.84;;;11.62;83.63
80777;BME280;70169;51.262;6.336;2024-03-17T17:23:35;101252.13;;;11.57;83.82
80777;BME280;70169;51.262;6.336;2024-03-17T17:25:51;101252.31;;;11.56;83.55
80777;BME280;70169;51.262;6.336;2024-03-17T17:28:06;101247.41;;;11.53;83.62
80777;BME280;70169;51.262;6.336;2024-03-17T17:30:22;101243.31;;;11.50;83.76
80777;BME280;70169;51.262;6.336;2024-03-17T17:32:37;101242.91;;;11.46;83.98
80777;BME280;70169;51.262;6.336;2024-03-17T17:34:52;101237.78;;;11.45;84.21
80777;BME280;70169;51.262;6.336;2024-03-17T17:37:08;101236.34;;;11.42;84.10
80777;BME280;70169;51.262;6.336;2024-03-17T17:39:27;101238.56;;;11.39;84.18
80777;BME280;70169;51.262;6.336;2024-03-17T17:41:42;101247.50;;;11.38;84.41
80777;BME280;70169;51.262;6.336;2024-03-17T17:43:57;101238.94;;;11.36;84.77
80777;BME280;70169;51.262;6.336;2024-03-17T17:46:14;101243.63;;;11.34;85.00
80777;BME280;70169;51.262;6.336;2024-03-17T17:48:33;101229.91;;;11.30;84.93
80777;BME280;70169;51.262;6.336;2024-03-17T17:50:54;101238.88;;;11.29;84.59
80777;BME280;70169;51.262;6.336;2024-03-17T17:53:09;101230.53;;;11.25;85.10
80777;BME280;70169;51.262;6.336;2024-03-17T17:55:28;101229.69;;;11.25;84.94
80777;BME280;70169;51.262;6.336;2024-03-17T17:57:43;101231.53;;;11.24;84.82
80777;BME280;70169;51.262;6.336;2024-03-17T17:59:59;101226.59;;;11.21;84.98
80777;BME280;70169;51.262;6.336;2024-03-17T18:02:14;101230.25;;;11.20;84.49
80777;BME280;70169;51.262;6.336;2024-03-17T18:04:29;101227.78;;;11.19;84.77
80777;BME280;70169;51.262;6.336;2024-03-17T18:06:45;101232.91;;;11.20;84.93
80777;BME280;70169;51.262;6.336;2024-03-17T18:09:00;101230.25;;;11.20;84.82
80777;BME280;70169;51.262;6.336;2024-03-17T18:11:23;101228.81;;;11.18;85.52
80777;BME280;70169;51.262;6.336;2024-03-17T18:13:39;101232.66;;;11.15;86.04
80777;BME280;70169;51.262;6.336;2024-03-17T18:15:58;101231.41;;;11.11;86.85
80777;BME280;70169;51.262;6.336;2024-03-17T18:18:14;101236.25;;;11.07;87.54
80777;BME280;70169;51.262;6.336;2024-03-17T18:20:29;101246.41;;;11.04;88.18
80777;BME280;70169;51.262;6.336;2024-03-17T18:22:47;101235.38;;;11.00;88.48
80777;BME280;70169;51.262;6.336;2024-03-17T18:25:03;101231.47;;;10.96;88.76
80777;BME280;70169;51.262;6.336;2024-03-17T18:27:19;101238.16;;;10.92;89.26
80777;BME280;70169;51.262;6.336;2024-03-17T18:29:34;101230.78;;;10.87;89.56
80777;BME280;70169;51.262;6.336;2024-03-17T18:31:49;101241.75;;;10.84;89.68
80777;BME280;70169;51.262;6.336;2024-03-17T18:34:04;101243.56;;;10.84;89.99
80777;BME280;70169;51.262;6.336;2024-03-17T18:36:20;101241.31;;;10.81;90.09
80777;BME280;70169;51.262;6.336;2024-03-17T18:38:35;101237.19;;;10.78;90.10
80777;BME280;70169;51.262;6.336;2024-03-17T18:43:19;101234.75;;;10.76;90.35
80777;BME280;70169;51.262;6.336;2024-03-17T18:45:34;101230.47;;;10.75;90.30
80777;BME280;70169;51.262;6.336;2024-03-17T18:47:49;101230.47;;;10.75;90.55
80777;BME280;70169;51.262;6.336;2024-03-17T18:50:06;101230.66;;;10.74;90.38
80777;BME280;70169;51.262;6.336;2024-03-17T18:52:22;101228.03;;;10.74;90.79
80777;BME280;70169;51.262;6.336;2024-03-17T18:54:37;101227.38;;;10.72;90.45
80777;BME280;70169;51.262;6.336;2024-03-17T18:56:52;101226.75;;;10.70;90.77
80777;BME280;70169;51.262;6.336;2024-03-17T18:59:09;101225.28;;;10.67;90.87
80777;BME280;70169;51.262;6.336;2024-03-17T19:01:24;101223.84;;;10.65;91.03
80777;BME280;70169;51.262;6.336;2024-03-17T19:03:39;101224.66;;;10.65;91.23
80777;BME280;70169;51.262;6.336;2024-03-17T19:06:13;101218.75;;;10.63;91.18
80777;BME280;70169;51.262;6.336;2024-03-17T19:08:29;101220.59;;;10.63;91.41
80777;BME280;70169;51.262;6.336;2024-03-17T19:10:51;101219.75;;;10.62;91.13
80777;BME280;70169;51.262;6.336;2024-03-17T19:13:06;101222.03;;;10.65;91.76
80777;BME280;70169;51.262;6.336;2024-03-17T19:15:22;101220.19;;;10.66;91.69
80777;BME280;70169;51.262;6.336;2024-03-17T19:17:38;101217.34;;;10.67;91.51
80777;BME280;70169;51.262;6.336;2024-03-17T19:19:54;101215.56;;;10.68;91.13
80777;BME280;70169;51.262;6.336;2024-03-17T19:22:09;101225.28;;;10.67;91.60
80777;BME280;70169;51.262;6.336;2024-03-17T19:24:25;101228.78;;;10.68;91.83
80777;BME280;70169;51.262;6.336;2024-03-17T19:26:40;101229.56;;;10.68;91.79
80777;BME280;70169;51.262;6.336;2024-03-17T19:28:55;101224.28;;;10.68;92.03
80777;BME280;70169;51.262;6.336;2024-03-17T19:31:11;101225.94;;;10.69;92.06
80777;BME280;70169;51.262;6.336;2024-03-17T19:33:27;101228.59;;;10.69;92.13
80777;BME280;70169;51.262;6.336;2024-03-17T19:35:42;101228.59;;;10.69;91.93
80777;BME280;70169;51.262;6.336;2024-03-17T19:37:57;101230.38;;;10.69;91.76
80777;BME280;70169;51.262;6.336;2024-03-17T19:40:13;101226.94;;;10.68;91.65
80777;BME280;70169;51.262;6.336;2024-03-17T19:42:28;101231.84;;;10.71;91.39
80777;BME280;70169;51.262;6.336;2024-03-17T19:44:46;101233.31;;;10.74;91.06
80777;BME280;70169;51.262;6.336;2024-03-17T19:47:01;101228.84;;;10.74;90.90
80777;BME280;70169;51.262;6.336;2024-03-17T19:49:17;101231.09;;;10.77;90.96
80777;BME280;70169;51.262;6.336;2024-03-17T19:51:33;101230.28;;;10.77;90.95
80777;BME280;70169;51.262;6.336;2024-03-17T19:53:49;101229.44;;;10.76;91.17
80777;BME280;70169;51.262;6.336;2024-03-17T19:56:05;101215.78;;;10.73;91.57
80777;BME280;70169;51.262;6.336;2024-03-17T19:58:22;101215.78;;;10.73;91.61
80777;BME280;70169;51.262;6.336;2024-03-17T20:00:38;101215.38;;;10.69;91.82
80777;BME280;70169;51.262;6.336;2024-03-17T20:02:53;101222.44;;;10.69;91.85
80777;BME280;70169;51.262;6.336;2024-03-17T20:05:11;101226.13;;;10.68;92.02
80777;BME280;70169;51.262;6.336;2024-03-17T20:07:26;101224.47;;;10.67;92.13
80777;BME280;70169;51.262;6.336;2024-03-17T20:09:41;101220.66;;;10.69;91.96
80777;BME280;70169;51.262;6.336;2024-03-17T20:11:57;101214.72;;;10.67;92.00
80777;BME280;70169;51.262;6.336;2024-03-17T20:14:12;101222.03;;;10.65;92.00
80777;BME280;70169;51.262;6.336;2024-03-17T20:16:27;101213.66;;;10.62;92.00
80777;BME280;70169;51.262;6.336;2024-03-17T20:18:47;101212.84;;;10.61;92.32
80777;BME280;70169;51.262;6.336;2024-03-17T20:21:02;101218.13;;;10.61;92.46
80777;BME280;70169;51.262;6.336;2024-03-17T20:23:18;101214.22;;;10.57;92.85
80777;BME280;70169;51.262;6.336;2024-03-17T20:25:34;101209.09;;;10.55;92.91
80777;BME280;70169;51.262;6.336;2024-03-17T20:27:50;101203.56;;;10.50;93.31
80777;BME280;70169;51.262;6.336;2024-03-17T20:30:06;101205.78;;;10.47;93.96
80777;BME280;70169;51.262;6.336;2024-03-17T20:32:22;101208.59;;;10.45;94.27
80777;BME280;70169;51.262;6.336;2024-03-17T20:34:38;101204.50;;;10.43;94.26
80777;BME280;70169;51.262;6.336;2024-03-17T20:36:54;101200.22;;;10.42;94.71
80777;BME280;70169;51.262;6.336;2024-03-17T20:39:09;101200.59;;;10.38;94.87
80777;BME280;70169;51.262;6.336;2024-03-17T20:41:27;101194.66;;;10.36;95.34
80777;BME280;70169;51.262;6.336;2024-03-17T20:43:42;101189.38;;;10.36;95.76
80777;BME280;70169;51.262;6.336;2024-03-17T20:45:58;101187.09;;;10.33;95.77
80777;BME280;70169;51.262;6.336;2024-03-17T20:48:13;101196.06;;;10.32;96.13
80777;BME280;70169;51.262;6.336;2024-03-17T20:50:29;101190.09;;;10.30;96.43
80777;BME280;70169;51.262;6.336;2024-03-17T20:52:45;101183.19;;;10.29;96.42
80777;BME280;70169;51.262;6.336;2024-03-17T20:55:00;101191.13;;;10.29;96.65
80777;BME280;70169;51.262;6.336;2024-03-17T20:57:15;101184.38;;;10.27;96.86
80777;BME280;70169;51.262;6.336;2024-03-17T20:59:31;101182.75;;;10.26;96.94
80777;BME280;70169;51.262;6.336;2024-03-17T21:01:46;101185.56;;;10.24;96.83
80777;BME280;70169;51.262;6.336;2024-03-17T21:04:01;101188.22;;;10.24;97.10
80777;BME280;70169;51.262;6.336;2024-03-17T21:06:19;101185.56;;;10.24;97.00
80777;BME280;70169;51.262;6.336;2024-03-17T21:08:37;101184.09;;;10.21;96.81
80777;BME280;70169;51.262;6.336;2024-03-17T21:10:58;101181.47;;;10.21;96.97
80777;BME280;70169;51.262;6.336;2024-03-17T21:13:15;101172.06;;;10.19;96.35
80777;BME280;70169;51.262;6.336;2024-03-17T21:15:30;101182.66;;;10.19;96.95
80777;BME280;70169;51.262;6.336;2024-03-17T21:17:46;101180.00;;;10.19;96.71
80777;BME280;70169;51.262;6.336;2024-03-17T21:20:03;101181.84;;;10.18;96.74
80777;BME280;70169;51.262;6.336;2024-03-17T21:22:21;101175.75;;;10.18;96.66
80777;BME280;70169;51.262;6.336;2024-03-17T21:24:37;101183.66;;;10.18;97.18
80777;BME280;70169;51.262;6.336;2024-03-17T21:26:53;101172.47;;;10.16;96.57
80777;BME280;70169;51.262;6.336;2024-03-17T21:29:08;101175.75;;;10.18;96.74
80777;BME280;70169;51.262;6.336;2024-03-17T21:31:23;101173.09;;;10.18;96.25
80777;BME280;70169;51.262;6.336;2024-03-17T21:33:39;101168.00;;;10.16;96.27
80777;BME280;70169;51.262;6.336;2024-03-17T21:35:54;101172.25;;;10.17;96.34
80777;BME280;70169;51.262;6.336;2024-03-17T21:38:09;101170.66;;;10.16;96.27
80777;BME280;70169;51.262;6.336;2024-03-17T21:40:25;101176.56;;;10.18;95.71
80777;BME280;70169;51.262;6.336;2024-03-17T21:42:41;101162.91;;;10.15;95.69
80777;BME280;70169;51.262;6.336;2024-03-17T21:44:57;101165.53;;;10.15;95.85
80777;BME280;70169;51.262;6.336;2024-03-17T21:47:13;101166.34;;;10.15;95.78
80777;BME280;70169;51.262;6.336;2024-03-17T21:49:30;101165.63;;;10.21;95.29
80777;BME280;70169;51.262;6.336;2024-03-17T21:51:46;101166.97;;;10.17;95.68
80777;BME280;70169;51.262;6.336;2024-03-17T21:54:01;101160.25;;;10.15;95.79
80777;BME280;70169;51.262;6.336;2024-03-17T21:56:16;101161.63;;;10.11;96.61
80777;BME280;70169;51.262;6.336;2024-03-17T21:58:32;101165.28;;;10.10;97.14
80777;BME280;70169;51.262;6.336;2024-03-17T22:00:47;101156.72;;;10.08;97.47
80777;BME280;70169;51.262;6.336;2024-03-17T22:03:03;101155.28;;;10.05;97.58
80777;BME280;70169;51.262;6.336;2024-03-17T22:05:18;101151.16;;;10.02;97.96
80777;BME280;70169;51.262;6.336;2024-03-17T22:07:34;101159.28;;;10.01;98.09
80777;BME280;70169;51.262;6.336;2024-03-17T22:09:49;101149.75;;;10.00;98.21
80777;BME280;70169;51.262;6.336;2024-03-17T22:12:05;101155.03;;;10.00;98.49
80777;BME280;70169;51.262;6.336;2024-03-17T22:14:20;101146.63;;;9.96;98.88
80777;BME280;70169;51.262;6.336;2024-03-17T22:16:36;101144.81;;;9.97;98.85
80777;BME280;70169;51.262;6.336;2024-03-17T22:18:54;101145.00;;;9.95;99.42
80777;BME280;70169;51.262;6.336;2024-03-17T22:21:12;101144.16;;;9.95;99.09
80777;BME280;70169;51.262;6.336;2024-03-17T22:23:28;101141.53;;;9.95;99.41
80777;BME280;70169;51.262;6.336;2024-03-17T22:25:51;101140.72;;;9.94;99.78
80777;BME280;70169;51.262;6.336;2024-03-17T22:28:06;101137.44;;;9.92;100.00
80777;BME280;70169;51.262;6.336;2024-03-17T22:30:22;101129.72;;;9.91;100.00
80777;BME280;70169;51.262;6.336;2024-03-17T22:32:37;101134.19;;;9.90;100.00
80777;BME280;70169;51.262;6.336;2024-03-17T22:34:52;101126.06;;;9.92;100.00
80777;BME280;70169;51.262;6.336;2024-03-17T22:37:08;101126.44;;;9.89;100.00
80777;BME280;70169;51.262;6.336;2024-03-17T22:39:24;101124.81;;;9.88;100.00
80777;BME280;70169;51.262;6.336;2024-03-17T22:41:39;101132.09;;;9.85;100.00
80777;BME280;70169;51.262;6.336;2024-03-17T22:43:56;101125.34;;;9.83;100.00
80777;BME280;70169;51.262;6.336;2024-03-17T22:46:14;101123.88;;;9.80;100.00
80777;BME280;70169;51.262;6.336;2024-03-17T22:48:30;101125.91;;;9.78;100.00
80777;BME280;70169;51.262;6.336;2024-03-17T22:50:53;101118.16;;;9.77;100.00
80777;BME280;70169;51.262;6.336;2024-03-17T22:53:08;101120.97;;;9.75;100.00
80777;BME280;70169;51.262;6.336;2024-03-17T22:55:24;101114.91;;;9.75;100.00
80777;BME280;70169;51.262;6.336;2024-03-17T22:57:39;101117.53;;;9.75;100.00
80777;BME280;70169;51.262;6.336;2024-03-17T22:59:55;101112.44;;;9.73;100.00
80777;BME280;70169;51.262;6.336;2024-03-17T23:02:10;101112.44;;;9.73;100.00
80777;BME280;70169;51.262;6.336;2024-03-17T23:04:25;101113.25;;;9.74;100.00
80777;BME280;70169;51.262;6.336;2024-03-17T23:06:41;101107.16;;;9.73;100.00
80777;BME280;70169;51.262;6.336;2024-03-17T23:08:56;101106.34;;;9.73;100.00